Time;durP1;ratioP1;P1;durP2;ratioP2;P2;SDS_P1;SDS_P2;PMS_P1;PMS_P2;Temp;Humidity;BMP_temperature;BMP_pressure;BME280_temperature;BME280_humidity;BME280_pressure;Samples;Min_cycle;Max_cycle;Signal;HPM_P1;HPM_P2
2021/12/15 00:03:21;;;;;;;3.72;1.92;;;19.60;86.30;;;;;;10535106;28;20040;-66
2021/12/15 00:08:22;;;;;;;2.95;1.80;;;19.60;86.40;;;;;;10518695;28;20086;-66
2021/12/15 00:13:24;;;;;;;3.40;2.00;;;19.50;86.50;;;;;;10514193;28;20048;-66
2021/12/15 00:18:25;;;;;;;3.22;1.90;;;19.40;86.50;;;;;;10536238;28;20044;-67
2021/12/15 00:23:27;;;;;;;2.35;1.80;;;19.40;86.70;;;;;;10535488;28;20094;-66
2021/12/15 00:28:28;;;;;;;3.50;1.70;;;19.30;86.70;;;;;;10503183;28;20037;-66
2021/12/15 00:33:30;;;;;;;3.35;1.92;;;19.20;86.80;;;;;;10506300;28;20037;-67
2021/12/15 00:38:31;;;;;;;3.50;1.85;;;19.10;86.80;;;;;;10517258;28;20501;-66
2021/12/15 00:43:33;;;;;;;2.17;1.70;;;19.10;86.90;;;;;;10521136;28;20041;-67
2021/12/15 00:48:34;;;;;;;2.58;1.85;;;19.00;86.90;;;;;;10510010;28;20040;-67
2021/12/15 00:53:36;;;;;;;2.50;1.67;;;19.00;87.00;;;;;;10503998;28;20098;-67
2021/12/15 00:58:37;;;;;;;3.25;1.80;;;18.90;87.30;;;;;;10518397;28;20040;-66
2021/12/15 01:03:39;;;;;;;2.13;1.73;;;18.80;87.10;;;;;;10516778;28;20048;-66
2021/12/15 01:08:42;;;;;;;3.03;2.00;;;18.80;87.20;;;;;;10535773;28;20044;-67
2021/12/15 01:24:21;;;;;;;3.40;2.10;;;18.70;87.30;;;;;;10516579;28;20039;-66
2021/12/15 01:29:23;;;;;;;3.22;1.75;;;18.60;87.30;;;;;;10537464;28;20040;-66
2021/12/15 01:34:24;;;;;;;2.35;1.63;;;18.60;87.50;;;;;;10535453;28;20063;-66
2021/12/15 01:39:25;;;;;;;2.33;1.73;;;18.50;87.50;;;;;;10523722;28;20481;-66
2021/12/15 01:49:46;;;;;;;3.00;1.90;;;18.40;87.50;;;;;;10517342;28;20028;-66
2021/12/15 01:54:48;;;;;;;1.80;1.48;;;18.40;87.60;;;;;;10534920;28;20058;-67
2021/12/15 01:59:49;;;;;;;2.65;1.90;;;18.40;87.70;;;;;;10536788;28;20048;-66
2021/12/15 02:04:51;;;;;;;2.72;1.50;;;18.30;87.70;;;;;;10526218;28;20052;-66
2021/12/15 02:10:05;;;;;;;3.58;1.73;;;18.30;87.80;;;;;;10519925;28;20047;-67
2021/12/15 02:15:07;;;;;;;2.50;1.67;;;18.20;87.80;;;;;;10513669;28;20131;-67
2021/12/15 02:20:08;;;;;;;1.90;1.60;;;18.20;87.80;;;;;;10522033;28;20051;-67
2021/12/15 02:25:12;;;;;;;2.45;1.58;;;18.20;87.80;;;;;;10512256;28;20490;-67
2021/12/15 02:30:28;;;;;;;3.35;1.70;;;18.20;87.90;;;;;;10512817;28;20113;-66
2021/12/15 02:40:48;;;;;;;2.28;1.45;;;18.00;87.90;;;;;;10506963;28;20028;-66
2021/12/15 02:45:49;;;;;;;2.85;1.75;;;18.00;87.90;;;;;;10504972;28;20106;-66
2021/12/15 02:50:51;;;;;;;2.40;1.67;;;18.00;88.00;;;;;;10532738;28;20055;-67
2021/12/15 02:55:52;;;;;;;2.65;1.70;;;18.00;88.00;;;;;;10509031;28;20408;-66
2021/12/15 03:00:59;;;;;;;2.72;1.60;;;17.90;88.10;;;;;;10542330;28;20509;-66
2021/12/15 03:06:07;;;;;;;2.33;1.55;;;17.90;88.10;;;;;;10534049;28;20079;-67
2021/12/15 03:16:27;;;;;;;2.58;1.85;;;17.80;88.10;;;;;;10512746;28;20044;-66
2021/12/15 03:21:29;;;;;;;2.65;1.80;;;17.80;88.10;;;;;;10517408;28;20044;-66
2021/12/15 03:26:34;;;;;;;2.15;1.80;;;17.80;88.20;;;;;;10542115;28;20117;-66
2021/12/15 03:37:20;;;;;;;3.75;1.95;;;17.70;88.30;;;;;;10525050;28;20401;-66
2021/12/15 03:42:23;;;;;;;2.38;1.60;;;17.70;88.30;;;;;;10500272;28;20052;-67
2021/12/15 03:47:25;;;;;;;3.47;2.03;;;17.70;88.30;;;;;;10521021;28;20428;-67
2021/12/15 03:52:26;;;;;;;2.03;1.83;;;17.60;88.30;;;;;;10541278;28;20101;-66
2021/12/15 03:57:28;;;;;;;2.00;1.48;;;17.60;88.30;;;;;;10530562;28;20047;-67
2021/12/15 04:02:29;;;;;;;2.17;1.92;;;17.60;88.30;;;;;;10539776;28;20040;-66
2021/12/15 04:07:31;;;;;;;2.53;1.67;;;17.60;88.40;;;;;;10520744;28;20060;-67
2021/12/15 04:12:32;;;;;;;2.45;2.08;;;17.50;88.40;;;;;;10512466;28;20052;-67
2021/12/15 04:17:34;;;;;;;2.58;1.60;;;17.50;88.40;;;;;;10499614;28;20489;-67
2021/12/15 04:22:36;;;;;;;2.63;2.10;;;17.50;88.40;;;;;;10521169;28;20566;-67
2021/12/15 04:27:37;;;;;;;2.65;1.77;;;17.50;88.50;;;;;;10535420;28;20413;-66
2021/12/15 04:32:39;;;;;;;3.13;2.38;;;17.50;88.60;;;;;;10515739;28;20044;-66
2021/12/15 04:37:41;;;;;;;2.70;2.08;;;17.50;89.00;;;;;;10505446;28;20596;-67
2021/12/15 04:42:44;;;;;;;2.00;1.63;;;17.50;88.90;;;;;;10527616;28;20095;-67
2021/12/15 04:47:45;;;;;;;3.05;2.60;;;17.40;88.70;;;;;;10537896;28;20044;-66
2021/12/15 04:52:47;;;;;;;3.15;2.47;;;17.40;89.00;;;;;;10539213;28;20051;-66
2021/12/15 04:57:48;;;;;;;2.80;2.08;;;17.40;89.00;;;;;;10538934;28;20044;-66
2021/12/15 05:02:52;;;;;;;2.63;2.40;;;17.50;89.00;;;;;;10511686;28;20048;-66
2021/12/15 05:07:53;;;;;;;2.85;2.30;;;17.50;88.90;;;;;;10522540;28;20055;-67
2021/12/15 05:12:55;;;;;;;3.20;2.45;;;17.50;89.10;;;;;;10529586;28;20052;-66
2021/12/15 05:17:56;;;;;;;2.03;1.83;;;17.50;89.20;;;;;;10530526;28;20109;-66
2021/12/15 05:22:58;;;;;;;3.92;2.53;;;17.50;89.00;;;;;;10537795;28;20047;-66
2021/12/15 05:27:59;;;;;;;3.65;2.85;;;17.50;89.00;;;;;;10536203;28;20407;-66
2021/12/15 05:33:01;;;;;;;4.43;2.97;;;17.40;89.20;;;;;;10535473;28;20048;-67
2021/12/15 05:38:02;;;;;;;2.95;2.30;;;17.50;89.20;;;;;;10525057;28;20071;-66
2021/12/15 05:43:04;;;;;;;2.88;2.47;;;17.50;89.10;;;;;;10529304;28;20052;-66
2021/12/15 05:48:05;;;;;;;5.10;3.40;;;17.50;89.00;;;;;;10503311;28;20044;-66
2021/12/15 05:53:07;;;;;;;3.95;3.00;;;17.40;89.20;;;;;;10537593;28;20040;-66
2021/12/15 05:58:08;;;;;;;3.00;2.70;;;17.50;89.20;;;;;;10527071;28;20082;-66
2021/12/15 06:03:10;;;;;;;4.00;3.10;;;17.50;89.00;;;;;;10516505;28;20410;-67
2021/12/15 06:08:11;;;;;;;4.03;2.92;;;17.50;89.20;;;;;;10502164;28;20389;-66
2021/12/15 06:13:13;;;;;;;3.28;2.88;;;17.50;89.30;;;;;;10532644;28;20412;-67
2021/12/15 06:18:14;;;;;;;2.97;2.28;;;17.50;89.20;;;;;;10530815;28;20040;-67
2021/12/15 06:23:18;;;;;;;4.50;3.47;;;17.50;89.10;;;;;;10540863;28;20048;-67
2021/12/15 06:28:20;;;;;;;3.40;2.95;;;17.40;89.30;;;;;;10542193;28;20108;-67
2021/12/15 06:33:21;;;;;;;3.70;3.08;;;17.50;89.90;;;;;;10542796;28;20511;-66
2021/12/15 06:38:23;;;;;;;3.72;2.90;;;17.50;89.10;;;;;;10530848;28;20047;-66
2021/12/15 06:43:24;;;;;;;4.03;3.30;;;17.40;89.20;;;;;;10528727;28;20036;-67
2021/12/15 06:59:03;;;;;;;5.47;2.72;;;18.00;89.10;;;;;;10524891;28;20036;-66
2021/12/15 07:04:04;;;;;;;3.92;2.97;;;18.50;88.40;;;;;;10537826;28;20040;-67
2021/12/15 07:09:07;;;;;;;3.38;2.75;;;18.90;87.80;;;;;;10527897;28;20075;-66
2021/12/15 07:14:08;;;;;;;4.28;3.50;;;19.20;87.50;;;;;;10529304;28;20101;-68
2021/12/15 07:19:17;;;;;;;6.00;3.75;;;19.30;87.30;;;;;;10538746;28;20060;-68
2021/12/15 07:24:19;;;;;;;5.00;3.75;;;19.40;87.50;;;;;;10524809;28;20047;-67
2021/12/15 07:29:20;;;;;;;5.20;3.30;;;19.40;87.60;;;;;;10543081;28;20048;-67
2021/12/15 07:34:22;;;;;;;4.88;3.78;;;19.30;87.70;;;;;;10541858;28;20044;-67
2021/12/15 07:39:23;;;;;;;4.55;3.25;;;19.10;87.90;;;;;;10542955;28;20052;-68
2021/12/15 07:44:24;;;;;;;5.35;3.95;;;19.00;88.20;;;;;;10542522;28;20492;-67
2021/12/15 07:49:26;;;;;;;6.22;4.40;;;18.80;88.50;;;;;;10542382;28;20052;-67
2021/12/15 07:54:27;;;;;;;4.65;3.65;;;18.70;89.00;;;;;;10542415;28;20044;-67
2021/12/15 07:59:29;;;;;;;5.38;3.97;;;18.60;88.80;;;;;;10542231;28;20055;-67
2021/12/15 08:04:30;;;;;;;4.68;3.45;;;18.50;88.90;;;;;;10528389;28;20055;-67
2021/12/15 08:09:32;;;;;;;4.13;3.58;;;18.50;89.00;;;;;;10499702;28;20048;-67
2021/12/15 08:14:33;;;;;;;5.45;4.07;;;18.50;89.10;;;;;;10499435;28;20079;-67
2021/12/15 08:19:35;;;;;;;5.22;3.80;;;18.50;89.20;;;;;;10499242;28;20044;-67
2021/12/15 08:24:36;;;;;;;4.55;3.90;;;18.40;89.10;;;;;;10499104;28;20044;-67
2021/12/15 08:29:38;;;;;;;5.10;3.67;;;18.40;89.20;;;;;;10499131;28;20040;-67
2021/12/15 08:34:39;;;;;;;5.50;4.25;;;18.40;89.20;;;;;;10498397;28;20044;-67
2021/12/15 08:39:41;;;;;;;4.70;3.50;;;18.40;89.20;;;;;;10498474;28;20040;-67
2021/12/15 08:44:42;;;;;;;3.55;3.25;;;18.40;89.30;;;;;;10497241;28;20056;-67
2021/12/15 08:49:44;;;;;;;6.63;4.00;;;18.40;89.20;;;;;;10497907;28;20044;-67
2021/12/15 08:54:45;;;;;;;4.15;3.42;;;18.30;89.20;;;;;;10497977;28;20056;-68
2021/12/15 08:59:47;;;;;;;4.25;3.50;;;18.40;89.20;;;;;;10497584;28;20055;-67
2021/12/15 09:04:48;;;;;;;4.30;3.53;;;18.40;89.30;;;;;;10524392;28;20052;-67
2021/12/15 09:09:50;;;;;;;9.50;3.80;;;18.30;89.20;;;;;;10539337;28;20044;-67
2021/12/15 09:14:51;;;;;;;4.28;3.30;;;18.40;89.20;;;;;;10538854;28;20048;-67
2021/12/15 09:19:53;;;;;;;3.88;3.10;;;18.40;89.20;;;;;;10539081;28;20048;-67
2021/12/15 09:24:54;;;;;;;4.78;3.42;;;18.40;89.20;;;;;;10538533;28;20101;-67
2021/12/15 09:29:56;;;;;;;3.88;3.20;;;18.30;89.20;;;;;;10538507;28;20048;-67
2021/12/15 09:34:57;;;;;;;3.75;3.17;;;18.40;89.20;;;;;;10516711;28;20072;-67
2021/12/15 09:39:59;;;;;;;3.80;3.30;;;18.30;89.10;;;;;;10496733;28;20527;-66
2021/12/15 09:45:14;;;;;;;3.60;2.90;;;18.40;89.30;;;;;;10496262;28;20048;-66
2021/12/15 10:06:32;;;;;;;4.60;3.00;;;18.40;89.10;;;;;;10537403;28;20048;-67
2021/12/15 10:11:48;;;;;;;3.15;2.72;;;18.50;89.10;;;;;;10536976;28;20070;-67
2021/12/15 10:22:10;;;;;;;3.35;2.42;;;18.50;89.00;;;;;;10537374;28;20032;-66
2021/12/15 10:27:11;;;;;;;3.65;2.67;;;18.50;89.00;;;;;;10536862;28;20059;-66
2021/12/15 10:32:13;;;;;;;3.75;2.92;;;18.60;89.10;;;;;;10536695;28;20055;-66
2021/12/15 10:37:14;;;;;;;4.25;3.10;;;18.50;89.10;;;;;;10536945;28;20055;-67
2021/12/15 10:42:16;;;;;;;3.55;2.60;;;18.60;89.10;;;;;;10537062;28;20485;-67
2021/12/15 10:47:17;;;;;;;2.90;2.60;;;18.50;89.10;;;;;;10536502;28;20062;-67
2021/12/15 10:52:19;;;;;;;3.28;2.65;;;18.50;89.10;;;;;;10536426;28;20448;-67
2021/12/15 10:57:20;;;;;;;4.70;2.65;;;18.50;89.10;;;;;;10536128;28;20067;-67
2021/12/15 11:02:24;;;;;;;2.58;2.38;;;18.50;89.20;;;;;;10535901;28;20044;-67
2021/12/15 11:07:25;;;;;;;3.45;2.42;;;18.50;89.10;;;;;;10529671;28;20082;-67
2021/12/15 11:12:27;;;;;;;3.35;2.35;;;18.50;89.20;;;;;;10543899;28;20056;-67
2021/12/15 11:17:28;;;;;;;3.38;2.60;;;18.50;89.20;;;;;;10544217;28;20051;-67
2021/12/15 11:22:30;;;;;;;4.50;2.50;;;18.50;89.20;;;;;;10543727;28;20089;-67
2021/12/15 11:27:31;;;;;;;3.70;2.47;;;18.40;89.20;;;;;;10543214;28;20134;-66
2021/12/15 11:32:33;;;;;;;5.32;2.40;;;18.50;89.20;;;;;;10517643;28;20048;-66
2021/12/15 11:37:34;;;;;;;2.60;2.25;;;18.50;89.20;;;;;;10501150;28;20048;-66
2021/12/15 11:42:35;;;;;;;5.10;2.67;;;18.50;89.50;;;;;;10500621;28;20038;-66
2021/12/15 11:47:37;;;;;;;6.38;3.78;;;18.50;89.40;;;;;;10500576;28;20231;-66
2021/12/15 11:52:39;;;;;;;4.57;3.03;;;18.40;89.50;;;;;;10500584;28;20044;-66
2021/12/15 11:57:40;;;;;;;3.97;2.50;;;18.40;89.50;;;;;;10500311;28;20045;-66
2021/12/15 12:02:42;;;;;;;3.78;2.78;;;18.40;89.50;;;;;;10534452;28;20047;-65
2021/12/15 12:07:43;;;;;;;5.60;3.13;;;18.40;89.60;;;;;;10541527;28;20059;-69
2021/12/15 12:12:51;;;;;;;6.07;3.13;;;18.40;89.90;;;;;;10541694;28;20048;-67
2021/12/15 12:17:53;;;;;;;5.20;3.08;;;18.40;90.00;;;;;;10541217;28;20101;-67
2021/12/15 12:22:54;;;;;;;6.18;2.60;;;18.50;90.00;;;;;;10541452;28;20044;-67
2021/12/15 12:27:55;;;;;;;2.78;2.38;;;18.50;89.80;;;;;;10540920;28;20048;-67
2021/12/15 12:32:57;;;;;;;3.38;2.15;;;18.50;89.90;;;;;;10540294;28;20052;-67
2021/12/15 12:37:58;;;;;;;3.88;2.00;;;18.50;89.70;;;;;;10540600;28;20063;-68
2021/12/15 12:43:00;;;;;;;2.85;2.13;;;18.50;89.70;;;;;;10540692;28;20485;-67
2021/12/15 12:48:05;;;;;;;4.18;1.90;;;18.50;89.70;;;;;;10540232;28;20535;-67
2021/12/15 13:03:46;;;;;;;2.60;1.58;;;18.50;89.50;;;;;;10539208;28;20036;-67
2021/12/15 13:08:48;;;;;;;3.15;1.70;;;18.50;89.50;;;;;;10539469;28;20102;-68
2021/12/15 13:13:49;;;;;;;2.00;1.60;;;18.50;89.50;;;;;;10538887;28;20055;-67
2021/12/15 13:18:53;;;;;;;2.40;1.65;;;18.50;89.50;;;;;;10539151;28;20047;-67
2021/12/15 13:23:59;;;;;;;2.42;1.52;;;18.50;89.40;;;;;;10538874;28;20131;-67
2021/12/15 13:29:00;;;;;;;2.67;1.70;;;18.50;89.40;;;;;;10518586;28;20052;-67
2021/12/15 13:34:02;;;;;;;1.88;1.48;;;18.50;89.30;;;;;;10496308;28;20467;-67
2021/12/15 13:39:03;;;;;;;2.45;1.50;;;18.50;89.20;;;;;;10496194;28;20398;-67
2021/12/15 13:44:05;;;;;;;2.53;1.50;;;18.40;89.20;;;;;;10495985;28;20390;-67
2021/12/15 13:49:06;;;;;;;2.10;1.42;;;18.40;89.10;;;;;;10495923;28;20489;-67
2021/12/15 13:54:08;;;;;;;1.80;1.30;;;18.40;89.10;;;;;;10495759;28;20430;-67
2021/12/15 13:59:09;;;;;;;2.17;1.30;;;18.40;89.10;;;;;;10503009;28;20040;-67
2021/12/15 14:04:11;;;;;;;1.85;1.17;;;18.40;89.00;;;;;;10537244;28;20047;-67
2021/12/15 14:09:12;;;;;;;1.98;1.10;;;18.40;89.00;;;;;;10537072;28;20084;-67
2021/12/15 14:14:14;;;;;;;1.88;1.30;;;18.40;89.00;;;;;;10536983;28;20063;-67
2021/12/15 14:19:16;;;;;;;2.25;1.30;;;18.40;88.90;;;;;;10537007;28;20048;-67
2021/12/15 14:24:17;;;;;;;2.20;1.15;;;18.40;88.90;;;;;;10537610;28;20047;-67
2021/12/15 14:29:19;;;;;;;3.30;1.15;;;18.40;88.90;;;;;;10508324;28;20056;-67
2021/12/15 14:34:20;;;;;;;2.30;1.20;;;18.40;88.80;;;;;;10494914;28;20052;-67
2021/12/15 14:39:22;;;;;;;1.80;1.15;;;18.40;88.80;;;;;;10495297;28;20048;-67
2021/12/15 14:44:23;;;;;;;1.85;0.85;;;18.30;88.70;;;;;;10503287;28;20051;-67
2021/12/15 14:49:25;;;;;;;1.55;1.00;;;18.40;88.70;;;;;;10502964;28;20059;-67
2021/12/15 14:54:26;;;;;;;3.55;1.10;;;18.30;88.60;;;;;;10502516;28;20053;-67
2021/12/15 14:59:28;;;;;;;2.03;1.10;;;18.30;88.60;;;;;;10523858;28;20097;-67
2021/12/15 15:04:29;;;;;;;1.90;0.90;;;18.30;88.60;;;;;;10543948;28;20063;-67
2021/12/15 15:09:33;;;;;;;1.10;0.80;;;18.30;88.50;;;;;;10544038;28;20063;-67
2021/12/15 15:14:34;;;;;;;1.60;0.93;;;18.30;88.50;;;;;;10543427;28;20052;-67
2021/12/15 15:19:51;;;;;;;2.20;0.98;;;18.30;88.40;;;;;;10543351;28;20044;-67
2021/12/15 15:24:52;;;;;;;1.58;0.90;;;18.30;88.40;;;;;;10543375;28;20521;-67
2021/12/15 15:29:54;;;;;;;1.75;0.90;;;18.30;88.30;;;;;;10502577;28;20504;-67
2021/12/15 15:34:55;;;;;;;1.33;0.80;;;18.30;88.30;;;;;;10500837;28;20485;-67
2021/12/15 15:39:57;;;;;;;1.27;0.82;;;18.20;88.20;;;;;;10500721;28;20045;-67
2021/12/15 15:44:58;;;;;;;1.02;0.75;;;18.30;88.20;;;;;;10500768;28;20049;-67
2021/12/15 15:50:01;;;;;;;2.35;0.93;;;18.30;88.10;;;;;;10500493;28;20052;-67
2021/12/15 15:55:02;;;;;;;1.20;0.80;;;18.30;88.10;;;;;;10499875;28;20123;-67
2021/12/15 16:00:04;;;;;;;1.45;0.90;;;18.30;88.10;;;;;;10537882;28;20044;-67
2021/12/15 16:05:07;;;;;;;1.45;0.85;;;18.20;88.00;;;;;;10516161;28;20071;-66
2021/12/15 16:10:08;;;;;;;1.63;0.70;;;18.30;88.00;;;;;;10513301;28;20048;-68
2021/12/15 16:15:10;;;;;;;2.25;0.82;;;18.20;87.80;;;;;;10518473;28;20598;-67
2021/12/15 16:20:21;;;;;;;0.80;0.60;;;18.30;87.70;;;;;;10527100;28;20420;-67
2021/12/15 16:25:22;;;;;;;0.88;0.70;;;18.70;87.30;;;;;;10524443;28;20520;-68
2021/12/15 16:30:24;;;;;;;1.33;0.68;;;19.20;86.50;;;;;;10499096;28;20048;-68
2021/12/15 16:35:25;;;;;;;1.08;0.60;;;19.60;85.90;;;;;;10510453;28;20408;-67
2021/12/15 16:40:32;;;;;;;0.93;0.50;;;19.90;85.40;;;;;;10531912;28;20039;-68
2021/12/15 16:45:34;;;;;;;1.15;0.50;;;20.10;85.10;;;;;;10514134;28;20607;-68
2021/12/15 16:50:35;;;;;;;0.82;0.50;;;20.20;85.00;;;;;;10532096;28;20446;-68
2021/12/15 16:55:37;;;;;;;2.50;0.70;;;20.30;84.80;;;;;;10532093;28;20425;-68
2021/12/15 17:00:39;;;;;;;1.10;0.52;;;20.40;84.70;;;;;;10510451;28;20040;-68
2021/12/15 17:05:40;;;;;;;0.95;0.50;;;20.40;84.60;;;;;;10509275;28;20045;-67
2021/12/15 17:10:42;;;;;;;1.08;0.40;;;20.40;84.50;;;;;;10521684;28;20052;-67
2021/12/15 17:15:52;;;;;;;1.05;0.63;;;20.50;84.50;;;;;;10516393;28;20056;-68
2021/12/15 17:20:54;;;;;;;1.30;0.55;;;20.50;84.70;;;;;;10495763;28;20126;-66
2021/12/15 17:25:55;;;;;;;1.60;0.47;;;20.50;84.50;;;;;;10513807;28;20052;-66
2021/12/15 17:30:57;;;;;;;1.48;0.50;;;20.60;84.40;;;;;;10513424;28;20129;-66
2021/12/15 17:35:58;;;;;;;7.68;1.98;;;20.60;85.00;;;;;;10506794;28;21145;-68
2021/12/15 17:41:00;;;;;;;7.82;2.03;;;20.80;84.50;;;;;;10495561;28;20278;-65
2021/12/15 17:46:01;;;;;;;5.50;1.50;;;20.90;84.50;;;;;;10527352;28;20051;-65
2021/12/15 17:51:03;;;;;;;4.95;1.50;;;20.90;84.50;;;;;;10515441;28;20048;-66
2021/12/15 17:56:07;;;;;;;2.60;1.20;;;20.90;84.50;;;;;;10517057;28;20060;-65
2021/12/15 18:01:08;;;;;;;4.72;1.20;;;21.00;84.40;;;;;;10499834;28;20541;-65
2021/12/15 18:06:10;;;;;;;3.85;0.95;;;21.00;84.40;;;;;;10507684;28;20544;-66
2021/12/15 18:11:11;;;;;;;5.07;1.25;;;21.00;84.40;;;;;;10500748;28;20477;-68
2021/12/15 18:16:13;;;;;;;4.65;0.90;;;21.00;84.30;;;;;;10520542;28;20055;-68
2021/12/15 18:21:14;;;;;;;3.15;0.60;;;21.00;84.30;;;;;;10508883;28;20044;-67
2021/12/15 18:26:18;;;;;;;1.95;0.80;;;21.00;84.40;;;;;;10507319;28;20455;-68
2021/12/15 18:31:20;;;;;;;2.90;0.70;;;21.00;84.30;;;;;;10515591;28;20127;-68
2021/12/15 18:36:21;;;;;;;2.05;0.80;;;21.00;84.30;;;;;;10489981;28;20057;-67
2021/12/15 18:41:26;;;;;;;2.58;0.80;;;21.10;84.30;;;;;;10508743;28;20048;-68
2021/12/15 18:46:29;;;;;;;1.08;0.63;;;21.00;84.20;;;;;;10529353;28;20408;-68
2021/12/15 18:51:30;;;;;;;1.00;0.52;;;21.00;84.10;;;;;;10500329;28;20048;-68
2021/12/15 18:56:32;;;;;;;1.92;0.70;;;21.00;84.10;;;;;;10507260;28;20055;-67
2021/12/15 19:01:34;;;;;;;1.23;0.50;;;21.00;84.10;;;;;;10517580;28;20052;-67
2021/12/15 19:06:36;;;;;;;2.00;0.73;;;21.00;84.20;;;;;;10496518;28;20076;-67
2021/12/15 19:11:37;;;;;;;2.10;0.60;;;20.90;84.10;;;;;;10523227;28;20055;-67
2021/12/15 19:16:39;;;;;;;2.50;0.80;;;21.00;84.10;;;;;;10506754;28;20052;-67
2021/12/15 19:21:40;;;;;;;1.25;0.70;;;20.90;84.00;;;;;;10492168;28;20051;-67
2021/12/15 19:26:42;;;;;;;0.95;0.68;;;20.90;83.90;;;;;;10515620;28;20097;-67
2021/12/15 19:31:43;;;;;;;1.65;0.60;;;20.90;83.90;;;;;;10514093;28;20501;-67
2021/12/15 19:36:45;;;;;;;1.33;0.50;;;20.90;83.80;;;;;;10504910;28;20043;-67
2021/12/15 19:41:46;;;;;;;1.30;0.68;;;20.90;83.80;;;;;;10501007;28;20103;-67
2021/12/15 19:46:48;;;;;;;1.05;0.60;;;20.80;83.70;;;;;;10532448;28;20067;-67
2021/12/15 19:51:49;;;;;;;0.80;0.52;;;20.80;83.70;;;;;;10520933;28;20055;-67
2021/12/15 19:56:52;;;;;;;1.20;0.60;;;20.80;83.60;;;;;;10510014;28;20052;-67
2021/12/15 20:01:54;;;;;;;1.05;0.60;;;20.80;83.50;;;;;;10539617;28;20048;-67
2021/12/15 20:06:56;;;;;;;2.25;0.70;;;20.80;83.40;;;;;;10534365;28;20048;-67
2021/12/15 20:11:57;;;;;;;1.52;0.50;;;20.80;83.40;;;;;;10539417;28;20040;-67
2021/12/15 20:16:59;;;;;;;0.80;0.80;;;20.80;83.40;;;;;;10538910;28;20056;-67
2021/12/15 20:22:00;;;;;;;1.65;0.77;;;20.80;83.30;;;;;;10539235;28;20044;-67
2021/12/15 20:27:02;;;;;;;1.02;0.60;;;20.80;83.20;;;;;;10538570;28;20048;-67
2021/12/15 20:32:03;;;;;;;1.05;0.63;;;20.80;83.20;;;;;;10525524;28;20040;-67
2021/12/15 20:37:05;;;;;;;1.80;0.63;;;20.80;83.20;;;;;;10502382;28;20514;-67
2021/12/15 20:42:06;;;;;;;1.10;0.80;;;20.80;83.10;;;;;;10538264;28;20044;-67
2021/12/15 20:47:08;;;;;;;1.00;0.60;;;20.80;83.00;;;;;;10538084;28;20511;-67
2021/12/15 20:52:10;;;;;;;1.38;0.60;;;20.80;83.00;;;;;;10533218;28;20488;-67
2021/12/15 20:57:11;;;;;;;1.00;0.60;;;20.80;83.00;;;;;;10514585;28;20425;-68
2021/12/15 21:02:12;;;;;;;1.00;0.52;;;20.80;83.00;;;;;;10540536;28;20516;-68
2021/12/15 21:07:14;;;;;;;1.73;0.60;;;20.80;82.90;;;;;;10515256;28;20051;-68
2021/12/15 21:12:15;;;;;;;1.20;0.60;;;20.80;82.90;;;;;;10524601;28;20047;-68
2021/12/15 21:17:17;;;;;;;1.08;0.80;;;20.80;82.80;;;;;;10529311;28;20048;-68
2021/12/15 21:22:18;;;;;;;1.20;0.52;;;20.80;82.80;;;;;;10509026;28;20055;-68
2021/12/15 21:27:20;;;;;;;0.63;0.40;;;20.80;82.80;;;;;;10504623;28;20050;-68
2021/12/15 21:32:22;;;;;;;1.08;0.63;;;20.80;82.80;;;;;;10511632;28;20050;-68
2021/12/15 21:37:24;;;;;;;0.82;0.68;;;20.80;82.80;;;;;;10512222;28;20047;-68
2021/12/15 21:42:25;;;;;;;1.73;0.60;;;20.80;82.70;;;;;;10494309;28;20052;-68
2021/12/15 21:47:27;;;;;;;1.92;0.70;;;20.80;82.70;;;;;;10496672;28;20047;-68
2021/12/15 21:52:29;;;;;;;1.20;0.60;;;20.80;82.70;;;;;;10495176;28;20510;-68
2021/12/15 21:57:31;;;;;;;1.25;0.70;;;20.90;82.80;;;;;;10511608;28;20043;-69
2021/12/15 22:02:32;;;;;;;1.80;0.68;;;20.80;82.70;;;;;;10511868;28;20056;-67
2021/12/15 22:07:33;;;;;;;2.40;0.70;;;20.80;82.80;;;;;;10515608;28;20057;-67
2021/12/15 22:12:35;;;;;;;1.48;0.77;;;20.70;83.10;;;;;;10526666;28;20051;-67
2021/12/15 22:17:36;;;;;;;0.75;0.50;;;20.50;83.30;;;;;;10519677;28;20048;-67
2021/12/15 22:22:38;;;;;;;1.40;0.80;;;20.40;83.50;;;;;;10507215;28;20102;-67
2021/12/15 22:27:39;;;;;;;2.35;0.70;;;20.30;83.80;;;;;;10501728;28;20059;-67
2021/12/15 22:32:43;;;;;;;1.05;0.60;;;20.10;84.00;;;;;;10532177;28;20059;-66
2021/12/15 22:37:45;;;;;;;1.92;0.75;;;20.00;84.20;;;;;;10524018;28;20052;-67
2021/12/15 22:42:46;;;;;;;1.23;0.73;;;19.90;84.30;;;;;;10519529;28;20048;-67
2021/12/15 22:47:48;;;;;;;1.35;0.60;;;19.80;84.40;;;;;;10534751;28;20067;-67
2021/12/15 22:52:49;;;;;;;2.72;0.63;;;19.70;84.60;;;;;;10508163;28;20059;-67
2021/12/15 22:57:51;;;;;;;1.73;0.70;;;19.60;84.70;;;;;;10501685;28;20044;-67
2021/12/15 23:02:52;;;;;;;1.65;0.88;;;19.50;84.80;;;;;;10533696;28;20458;-67
2021/12/15 23:07:54;;;;;;;1.00;0.70;;;19.50;85.00;;;;;;10511457;28;20048;-67
2021/12/15 23:12:56;;;;;;;1.50;0.75;;;19.40;85.10;;;;;;10529467;28;20140;-67
2021/12/15 23:17:59;;;;;;;0.80;0.60;;;19.30;85.10;;;;;;10533187;28;20443;-67
2021/12/15 23:23:00;;;;;;;1.30;0.73;;;19.30;85.20;;;;;;10500532;28;20135;-67
2021/12/15 23:28:02;;;;;;;1.27;0.68;;;19.20;85.30;;;;;;10539974;28;20060;-67
2021/12/15 23:33:03;;;;;;;1.58;0.77;;;19.10;85.30;;;;;;10505156;28;20049;-67
2021/12/15 23:38:15;;;;;;;1.45;0.80;;;19.10;85.50;;;;;;10507656;28;20044;-67
2021/12/15 23:43:40;;;;;;;1.20;0.70;;;19.00;85.50;;;;;;10509293;28;20105;-67
